sensor_id;sensor_type;location;lat;lon;timestamp;pressure;altitude;pressure_sealevel;temperature;humidity
21504;BME280;10913;51.992;9.228;2024-01-27T00:10:18;101871.81;;;5.98;100.00
21504;BME280;10913;51.992;9.228;2024-01-27T00:12:48;101878.88;;;6.00;100.00
21504;BME280;10913;51.992;9.228;2024-01-27T02:22:43;101957.72;;;4.77;100.00
21504;BME280;10913;51.992;9.228;2024-01-27T02:25:17;101961.19;;;4.76;100.00
21504;BME280;10913;51.992;9.228;2024-01-27T02:28:09;101957.59;;;4.74;100.00
21504;BME280;10913;51.992;9.228;2024-01-27T02:33:50;101955.66;;;4.70;100.00
21504;BME280;10913;51.992;9.228;2024-01-27T02:36:24;101964.47;;;4.72;100.00
21504;BME280;10913;51.992;9.228;2024-01-27T02:39:14;101966.19;;;4.71;100.00
21504;BME280;10913;51.992;9.228;2024-01-27T02:41:40;101962.56;;;4.68;100.00
21504;BME280;10913;51.992;9.228;2024-01-27T02:44:07;101970.34;;;4.66;100.00
21504;BME280;10913;51.992;9.228;2024-01-27T02:46:45;101971.09;;;4.64;100.00
21504;BME280;10913;51.992;9.228;2024-01-27T02:49:13;101970.19;;;4.63;100.00
21504;BME280;10913;51.992;9.228;2024-01-27T02:54:35;101969.94;;;4.57;100.00
21504;BME280;10913;51.992;9.228;2024-01-27T02:57:34;101975.03;;;4.54;100.00
21504;BME280;10913;51.992;9.228;2024-01-27T03:00:07;101981.94;;;4.52;100.00
21504;BME280;10913;51.992;9.228;2024-01-27T03:02:34;101980.28;;;4.54;100.00
21504;BME280;10913;51.992;9.228;2024-01-27T03:05:21;101964.34;;;4.49;100.00
21504;BME280;10913;51.992;9.228;2024-01-27T03:07:50;101970.34;;;4.47;100.00
21504;BME280;10913;51.992;9.228;2024-01-27T03:10:31;101974.47;;;4.42;100.00
21504;BME280;10913;51.992;9.228;2024-01-27T03:16:32;101979.53;;;4.37;100.00
21504;BME280;10913;51.992;9.228;2024-01-27T03:19:10;101980.34;;;4.36;100.00
21504;BME280;10913;51.992;9.228;2024-01-27T03:22:19;101977.72;;;4.36;100.00
21504;BME280;10913;51.992;9.228;2024-01-27T03:24:58;101974.22;;;4.36;100.00
21504;BME280;10913;51.992;9.228;2024-01-27T03:27:35;101985.56;;;4.36;100.00
21504;BME280;10913;51.992;9.228;2024-01-27T03:30:15;101983.78;;;4.35;100.00
21504;BME280;10913;51.992;9.228;2024-01-27T03:32:56;101980.41;;;4.38;100.00
21504;BME280;10913;51.992;9.228;2024-01-27T03:35:43;101996.03;;;4.36;100.00
21504;BME280;10913;51.992;9.228;2024-01-27T03:38:50;101994.78;;;4.28;100.00
21504;BME280;10913;51.992;9.228;2024-01-27T03:41:30;101989.47;;;4.27;100.00
21504;BME280;10913;51.992;9.228;2024-01-27T03:44:06;101985.91;;;4.25;100.00
21504;BME280;10913;51.992;9.228;2024-01-27T03:47:01;101986.66;;;4.22;100.00
21504;BME280;10913;51.992;9.228;2024-01-27T03:49:50;101992.69;;;4.21;100.00
21504;BME280;10913;51.992;9.228;2024-01-27T03:52:21;101998.00;;;4.23;100.00
21504;BME280;10913;51.992;9.228;2024-01-27T03:54:59;101998.81;;;4.22;100.00
21504;BME280;10913;51.992;9.228;2024-01-27T03:58:24;101999.72;;;4.22;100.00
21504;BME280;10913;51.992;9.228;2024-01-27T04:00:37;102000.03;;;4.28;100.00
21504;BME280;10913;51.992;9.228;2024-01-27T04:03:02;102012.19;;;4.28;100.00
21504;BME280;10913;51.992;9.228;2024-01-27T04:05:49;102004.13;;;4.23;100.00
21504;BME280;10913;51.992;9.228;2024-01-27T04:08:17;102000.53;;;4.21;100.00
21504;BME280;10913;51.992;9.228;2024-01-27T04:11:00;102003.06;;;4.18;100.00
21504;BME280;10913;51.992;9.228;2024-01-27T04:13:52;102002.22;;;4.19;100.00
21504;BME280;10913;51.992;9.228;2024-01-27T04:16:46;102001.34;;;4.19;100.00
21504;BME280;10913;51.992;9.228;2024-01-27T04:19:44;101995.06;;;4.15;100.00
21504;BME280;10913;51.992;9.228;2024-01-27T04:22:19;101998.50;;;4.14;100.00
21504;BME280;10913;51.992;9.228;2024-01-27T04:27:44;102009.19;;;4.19;100.00
21504;BME280;10913;51.992;9.228;2024-01-27T04:30:36;102006.56;;;4.19;100.00
21504;BME280;10913;51.992;9.228;2024-01-27T04:33:08;101996.84;;;4.16;100.00
21504;BME280;10913;51.992;9.228;2024-01-27T05:01:45;102025.28;;;3.91;100.00
21504;BME280;10913;51.992;9.228;2024-01-27T05:04:38;102028.56;;;3.87;100.00
21504;BME280;10913;51.992;9.228;2024-01-27T05:07:05;102026.69;;;3.84;100.00
21504;BME280;10913;51.992;9.228;2024-01-27T05:09:42;102032.81;;;3.85;100.00
21504;BME280;10913;51.992;9.228;2024-01-27T05:12:10;102045.88;;;3.85;100.00
21504;BME280;10913;51.992;9.228;2024-01-27T05:14:50;102047.53;;;3.83;100.00
21504;BME280;10913;51.992;9.228;2024-01-27T05:17:50;102061.41;;;3.81;100.00
21504;BME280;10913;51.992;9.228;2024-01-27T05:20:39;102059.34;;;3.74;100.00
21504;BME280;10913;51.992;9.228;2024-01-27T09:19:05;102169.91;;;16.79;58.92
21504;BME280;10913;51.992;9.228;2024-01-27T09:21:34;102162.66;;;17.19;58.29
21504;BME280;10913;51.992;9.228;2024-01-27T09:24:08;102159.97;;;17.23;57.35
21504;BME280;10913;51.992;9.228;2024-01-27T09:26:34;102178.75;;;17.10;57.74
21504;BME280;10913;51.992;9.228;2024-01-27T09:29:07;102175.84;;;17.65;57.35
21504;BME280;10913;51.992;9.228;2024-01-27T09:31:32;102167.41;;;18.19;56.26
21504;BME280;10913;51.992;9.228;2024-01-27T09:33:58;102175.16;;;18.56;55.66
21504;BME280;10913;51.992;9.228;2024-01-27T09:36:27;102177.81;;;18.59;55.36
21504;BME280;10913;51.992;9.228;2024-01-27T09:38:55;102189.78;;;18.12;56.20
21504;BME280;10913;51.992;9.228;2024-01-27T09:41:34;102190.72;;;18.08;55.23
21504;BME280;10913;51.992;9.228;2024-01-27T09:44:04;102192.09;;;17.02;56.47
21504;BME280;10913;51.992;9.228;2024-01-27T09:46:31;102199.28;;;16.91;57.95
21504;BME280;10913;51.992;9.228;2024-01-27T09:49:08;102199.06;;;17.46;56.97
21504;BME280;10913;51.992;9.228;2024-01-27T09:51:37;102198.97;;;17.72;56.72
21504;BME280;10913;51.992;9.228;2024-01-27T09:54:05;102194.41;;;17.89;56.32
21504;BME280;10913;51.992;9.228;2024-01-27T09:56:31;102197.84;;;18.06;55.64
21504;BME280;10913;51.992;9.228;2024-01-27T09:59:01;102193.44;;;18.01;55.63
21504;BME280;10913;51.992;9.228;2024-01-27T10:01:27;102190.84;;;17.90;56.21
21504;BME280;10913;51.992;9.228;2024-01-27T10:04:00;102195.50;;;17.47;57.03
21504;BME280;10913;51.992;9.228;2024-01-27T10:06:31;102198.09;;;17.64;56.42
21504;BME280;10913;51.992;9.228;2024-01-27T10:09:02;102196.38;;;17.50;56.19
21504;BME280;10913;51.992;9.228;2024-01-27T10:11:28;102196.38;;;17.56;57.10
21504;BME280;10913;51.992;9.228;2024-01-27T10:13:57;102197.22;;;17.69;56.94
21504;BME280;10913;51.992;9.228;2024-01-27T10:16:44;102196.38;;;17.53;56.44
21504;BME280;10913;51.992;9.228;2024-01-27T10:19:19;102204.41;;;17.50;56.89
21504;BME280;10913;51.992;9.228;2024-01-27T10:22:00;102209.78;;;17.43;57.08
21504;BME280;10913;51.992;9.228;2024-01-27T10:24:27;102208.06;;;17.31;57.35
21504;BME280;10913;51.992;9.228;2024-01-27T10:27:01;102208.84;;;17.54;57.37
21504;BME280;10913;51.992;9.228;2024-01-27T10:29:27;102204.44;;;17.40;57.38
21504;BME280;10913;51.992;9.228;2024-01-27T10:31:52;102202.63;;;17.46;57.42
21504;BME280;10913;51.992;9.228;2024-01-27T10:34:42;102209.84;;;17.26;58.31
21504;BME280;10913;51.992;9.228;2024-01-27T10:37:24;102207.16;;;17.38;58.23
21504;BME280;10913;51.992;9.228;2024-01-27T10:39:59;102195.59;;;17.32;57.79
21504;BME280;10913;51.992;9.228;2024-01-27T10:45:11;102200.19;;;16.66;57.79
21504;BME280;10913;51.992;9.228;2024-01-27T10:48:12;102203.75;;;16.36;58.95
21504;BME280;10913;51.992;9.228;2024-01-27T10:50:53;102205.53;;;16.15;59.17
21504;BME280;10913;51.992;9.228;2024-01-27T10:53:44;102206.38;;;15.92;59.87
21504;BME280;10913;51.992;9.228;2024-01-27T10:56:45;102200.19;;;16.15;59.93
21504;BME280;10913;51.992;9.228;2024-01-27T10:59:19;102191.28;;;16.41;59.76
21504;BME280;10913;51.992;9.228;2024-01-27T11:02:13;102194.84;;;16.25;59.52
21504;BME280;10913;51.992;9.228;2024-01-27T11:05:13;102201.94;;;15.92;59.84
21504;BME280;10913;51.992;9.228;2024-01-27T11:08:26;102199.22;;;15.68;60.15
21504;BME280;10913;51.992;9.228;2024-01-27T11:11:17;102199.94;;;15.39;60.94
21504;BME280;10913;51.992;9.228;2024-01-27T11:13:49;102192.00;;;15.45;61.44
21504;BME280;10913;51.992;9.228;2024-01-27T11:16:19;102198.06;;;15.11;60.76
21504;BME280;10913;51.992;9.228;2024-01-27T11:18:49;102195.41;;;15.12;61.75
21504;BME280;10913;51.992;9.228;2024-01-27T11:31:06;102197.41;;;14.24;62.94
21504;BME280;10913;51.992;9.228;2024-01-27T12:11:54;102195.50;;;13.28;65.82
21504;BME280;10913;51.992;9.228;2024-01-27T14:31:43;102215.81;;;9.50;76.18
21504;BME280;10913;51.992;9.228;2024-01-27T14:34:34;102213.16;;;9.50;76.58
21504;BME280;10913;51.992;9.228;2024-01-27T14:37:14;102211.28;;;9.46;76.76
21504;BME280;10913;51.992;9.228;2024-01-27T14:42:55;102199.03;;;9.48;76.57
21504;BME280;10913;51.992;9.228;2024-01-27T14:45:38;102195.47;;;9.46;76.74
21504;BME280;10913;51.992;9.228;2024-01-27T14:48:04;102196.91;;;9.35;76.62
21504;BME280;10913;51.992;9.228;2024-01-27T14:50:38;102206.53;;;9.32;76.67
21504;BME280;10913;51.992;9.228;2024-01-27T14:53:06;102209.06;;;9.29;76.76
21504;BME280;10913;51.992;9.228;2024-01-27T14:55:58;102218.31;;;9.15;77.16
21504;BME280;10913;51.992;9.228;2024-01-27T14:58:23;102211.22;;;9.13;77.40
21504;BME280;10913;51.992;9.228;2024-01-27T15:01:02;102222.56;;;9.10;77.58
21504;BME280;10913;51.992;9.228;2024-01-27T15:03:29;102219.81;;;9.07;78.08
21504;BME280;10913;51.992;9.228;2024-01-27T15:06:02;102215.41;;;9.06;78.27
21504;BME280;10913;51.992;9.228;2024-01-27T15:08:28;102210.91;;;9.04;78.33
21504;BME280;10913;51.992;9.228;2024-01-27T15:10:54;102210.03;;;9.03;78.31
21504;BME280;10913;51.992;9.228;2024-01-27T15:13:31;102213.59;;;9.05;78.51
21504;BME280;10913;51.992;9.228;2024-01-27T15:15:59;102205.53;;;9.01;78.11
21504;BME280;10913;51.992;9.228;2024-01-27T15:18:28;102209.75;;;8.94;78.05
21504;BME280;10913;51.992;9.228;2024-01-27T15:20:54;102212.25;;;8.89;78.49
21504;BME280;10913;51.992;9.228;2024-01-27T15:26:15;102215.44;;;8.79;78.81
21504;BME280;10913;51.992;9.228;2024-01-27T15:28:42;102211.72;;;8.73;78.61
21504;BME280;10913;51.992;9.228;2024-01-27T15:31:17;102214.25;;;8.70;79.34
21504;BME280;10913;51.992;9.228;2024-01-27T15:33:56;102219.19;;;8.59;80.02
21504;BME280;10913;51.992;9.228;2024-01-27T15:39:40;102219.56;;;8.44;80.92
21504;BME280;10913;51.992;9.228;2024-01-27T15:42:11;102222.94;;;8.39;81.21
21504;BME280;10913;51.992;9.228;2024-01-27T15:44:37;102234.19;;;8.35;81.36
21504;BME280;10913;51.992;9.228;2024-01-27T15:47:07;102232.00;;;8.23;81.48
21504;BME280;10913;51.992;9.228;2024-01-27T15:49:36;102230.81;;;8.13;82.26
21504;BME280;10913;51.992;9.228;2024-01-27T15:52:31;102234.00;;;8.05;82.49
21504;BME280;10913;51.992;9.228;2024-01-27T15:55:15;102231.91;;;7.94;82.87
21504;BME280;10913;51.992;9.228;2024-01-27T15:57:42;102238.69;;;7.88;83.24
21504;BME280;10913;51.992;9.228;2024-01-27T16:03:03;102242.50;;;7.72;83.83
21504;BME280;10913;51.992;9.228;2024-01-27T16:05:59;102242.28;;;7.66;83.86
21504;BME280;10913;51.992;9.228;2024-01-27T16:08:30;102242.03;;;7.60;84.23
21504;BME280;10913;51.992;9.228;2024-01-27T16:10:56;102242.63;;;7.51;84.12
21504;BME280;10913;51.992;9.228;2024-01-27T16:13:26;102237.84;;;7.41;84.82
21504;BME280;10913;51.992;9.228;2024-01-27T16:16:02;102233.94;;;7.30;84.94
21504;BME280;10913;51.992;9.228;2024-01-27T16:18:28;102235.38;;;7.22;85.35
21504;BME280;10913;51.992;9.228;2024-01-27T16:20:55;102240.34;;;7.14;85.46
21504;BME280;10913;51.992;9.228;2024-01-27T16:23:32;102239.06;;;7.05;85.72
21504;BME280;10913;51.992;9.228;2024-01-27T16:26:09;102237.78;;;6.94;86.04
21504;BME280;10913;51.992;9.228;2024-01-27T16:28:50;102247.91;;;6.84;86.45
21504;BME280;10913;51.992;9.228;2024-01-27T16:31:16;102242.38;;;6.77;86.39
21504;BME280;10913;51.992;9.228;2024-01-27T16:33:52;102243.91;;;6.72;86.79
21504;BME280;10913;51.992;9.228;2024-01-27T16:36:44;102244.56;;;6.66;87.50
21504;BME280;10913;51.992;9.228;2024-01-27T16:39:24;102239.94;;;6.61;87.28
21504;BME280;10913;51.992;9.228;2024-01-27T16:41:59;102247.59;;;6.54;87.72
21504;BME280;10913;51.992;9.228;2024-01-27T16:44:27;102250.09;;;6.51;87.70
21504;BME280;10913;51.992;9.228;2024-01-27T16:47:02;102251.63;;;6.46;87.74
21504;BME280;10913;51.992;9.228;2024-01-27T16:49:27;102258.31;;;6.38;87.61
21504;BME280;10913;51.992;9.228;2024-01-27T16:52:02;102248.44;;;6.33;87.94
21504;BME280;10913;51.992;9.228;2024-01-27T16:54:27;102258.66;;;6.27;87.96
21504;BME280;10913;51.992;9.228;2024-01-27T16:56:55;102258.28;;;6.17;88.04
21504;BME280;10913;51.992;9.228;2024-01-27T16:59:24;102262.38;;;6.11;88.43
21504;BME280;10913;51.992;9.228;2024-01-27T17:01:50;102266.50;;;6.06;88.65
21504;BME280;10913;51.992;9.228;2024-01-27T17:04:52;102268.63;;;5.94;88.58
21504;BME280;10913;51.992;9.228;2024-01-27T17:07:20;102270.66;;;5.81;89.29
21504;BME280;10913;51.992;9.228;2024-01-27T17:09:53;102275.56;;;5.74;89.47
21504;BME280;10913;51.992;9.228;2024-01-27T17:12:28;102278.88;;;5.70;89.85
21504;BME280;10913;51.992;9.228;2024-01-27T17:15:03;102276.88;;;5.64;90.04
21504;BME280;10913;51.992;9.228;2024-01-27T17:17:34;102275.06;;;5.63;89.88
21504;BME280;10913;51.992;9.228;2024-01-27T17:20:06;102270.41;;;5.56;90.13
21504;BME280;10913;51.992;9.228;2024-01-27T17:22:43;102271.78;;;5.48;90.04
21504;BME280;10913;51.992;9.228;2024-01-27T17:25:14;102268.03;;;5.43;90.42
21504;BME280;10913;51.992;9.228;2024-01-27T17:28:10;102270.41;;;5.37;90.71
21504;BME280;10913;51.992;9.228;2024-01-27T17:33:21;102271.75;;;5.29;90.96
21504;BME280;10913;51.992;9.228;2024-01-27T17:35:47;102274.22;;;5.26;91.14
21504;BME280;10913;51.992;9.228;2024-01-27T17:38:20;102274.81;;;5.20;90.86
21504;BME280;10913;51.992;9.228;2024-01-27T17:40:46;102284.38;;;5.18;90.90
21504;BME280;10913;51.992;9.228;2024-01-27T17:43:13;102283.19;;;5.11;90.94
21504;BME280;10913;51.992;9.228;2024-01-27T17:45:59;102282.81;;;5.04;91.12
21504;BME280;10913;51.992;9.228;2024-01-27T17:48:29;102294.03;;;5.01;91.42
21504;BME280;10913;51.992;9.228;2024-01-27T17:51:17;102293.75;;;4.95;91.82
21504;BME280;10913;51.992;9.228;2024-01-27T17:54:05;102291.66;;;4.88;91.94
21504;BME280;10913;51.992;9.228;2024-01-27T17:56:36;102293.00;;;4.80;91.97
21504;BME280;10913;51.992;9.228;2024-01-27T17:59:08;102292.63;;;4.72;92.49
21504;BME280;10913;51.992;9.228;2024-01-27T18:01:37;102290.69;;;4.68;92.87
21504;BME280;10913;51.992;9.228;2024-01-27T18:04:05;102286.84;;;4.62;92.80
21504;BME280;10913;51.992;9.228;2024-01-27T18:06:32;102294.50;;;4.57;92.78
21504;BME280;10913;51.992;9.228;2024-01-27T18:09:01;102284.63;;;4.52;92.74
21504;BME280;10913;51.992;9.228;2024-01-27T18:11:31;102284.31;;;4.45;92.99
21504;BME280;10913;51.992;9.228;2024-01-27T18:13:56;102283.34;;;4.43;93.10
21504;BME280;10913;51.992;9.228;2024-01-27T18:16:30;102289.38;;;4.42;93.44
21504;BME280;10913;51.992;9.228;2024-01-27T18:19:07;102287.47;;;4.38;93.36
21504;BME280;10913;51.992;9.228;2024-01-27T18:21:38;102280.44;;;4.37;93.55
21504;BME280;10913;51.992;9.228;2024-01-27T18:24:06;102288.94;;;4.33;94.17
21504;BME280;10913;51.992;9.228;2024-01-27T18:27:05;102289.75;;;4.32;94.34
21504;BME280;10913;51.992;9.228;2024-01-27T18:29:31;102288.78;;;4.30;94.74
21504;BME280;10913;51.992;9.228;2024-01-27T18:32:03;102279.94;;;4.28;95.08
21504;BME280;10913;51.992;9.228;2024-01-27T18:34:51;102282.56;;;4.28;95.02
21504;BME280;10913;51.992;9.228;2024-01-27T18:37:17;102285.34;;;4.31;94.89
21504;BME280;10913;51.992;9.228;2024-01-27T18:39:43;102279.88;;;4.27;94.77
21504;BME280;10913;51.992;9.228;2024-01-27T18:42:10;102291.16;;;4.26;94.64
21504;BME280;10913;51.992;9.228;2024-01-27T18:44:42;102291.06;;;4.24;94.95
21504;BME280;10913;51.992;9.228;2024-01-27T18:47:52;102295.31;;;4.22;95.15
21504;BME280;10913;51.992;9.228;2024-01-27T18:50:25;102294.22;;;4.17;94.98
21504;BME280;10913;51.992;9.228;2024-01-27T18:52:53;102301.00;;;4.13;95.11
21504;BME280;10913;51.992;9.228;2024-01-27T18:56:01;102306.81;;;4.08;95.10
21504;BME280;10913;51.992;9.228;2024-01-27T18:58:31;102303.75;;;3.99;94.89
21504;BME280;10913;51.992;9.228;2024-01-27T19:00:58;102306.19;;;3.96;94.63
21504;BME280;10913;51.992;9.228;2024-01-27T19:03:23;102300.63;;;3.90;95.09
21504;BME280;10913;51.992;9.228;2024-01-27T19:06:12;102300.13;;;3.80;95.17
21504;BME280;10913;51.992;9.228;2024-01-27T19:08:41;102298.19;;;3.76;95.22
21504;BME280;10913;51.992;9.228;2024-01-27T19:11:16;102311.91;;;3.72;95.07
21504;BME280;10913;51.992;9.228;2024-01-27T19:13:51;102311.41;;;3.63;95.29
21504;BME280;10913;51.992;9.228;2024-01-27T19:16:43;102311.19;;;3.59;95.69
21504;BME280;10913;51.992;9.228;2024-01-27T19:19:15;102300.47;;;3.54;95.70
21504;BME280;10913;51.992;9.228;2024-01-27T19:21:50;102305.88;;;3.57;95.59
21504;BME280;10913;51.992;9.228;2024-01-27T19:24:19;102305.53;;;3.51;95.33
21504;BME280;10913;51.992;9.228;2024-01-27T19:27:13;102308.44;;;3.41;94.80
21504;BME280;10913;51.992;9.228;2024-01-27T19:29:45;102314.00;;;3.31;95.49
21504;BME280;10913;51.992;9.228;2024-01-27T19:32:48;102316.84;;;3.19;95.65
21504;BME280;10913;51.992;9.228;2024-01-27T19:35:31;102322.44;;;3.10;96.58
21504;BME280;10913;51.992;9.228;2024-01-27T19:38:02;102316.78;;;3.03;96.92
21504;BME280;10913;51.992;9.228;2024-01-27T19:40:41;102322.81;;;3.02;97.14
21504;BME280;10913;51.992;9.228;2024-01-27T19:43:22;102326.25;;;3.01;97.22
21504;BME280;10913;51.992;9.228;2024-01-27T19:45:59;102314.75;;;2.97;97.08
21504;BME280;10913;51.992;9.228;2024-01-27T19:48:32;102316.47;;;2.97;97.16
21504;BME280;10913;51.992;9.228;2024-01-27T19:51:11;102314.91;;;3.00;97.02
21504;BME280;10913;51.992;9.228;2024-01-27T19:54:02;102322.69;;;2.99;97.11
21504;BME280;10913;51.992;9.228;2024-01-27T19:56:54;102321.78;;;2.98;97.56
21504;BME280;10913;51.992;9.228;2024-01-27T19:59:53;102320.59;;;2.93;97.41
21504;BME280;10913;51.992;9.228;2024-01-27T20:02:29;102324.28;;;2.97;98.17
21504;BME280;10913;51.992;9.228;2024-01-27T20:05:05;102318.09;;;2.95;98.57
21504;BME280;10913;51.992;9.228;2024-01-27T20:07:37;102315.56;;;2.96;98.31
21504;BME280;10913;51.992;9.228;2024-01-27T20:10:09;102315.56;;;2.96;98.46
21504;BME280;10913;51.992;9.228;2024-01-27T20:12:49;102315.28;;;2.92;98.47
21504;BME280;10913;51.992;9.228;2024-01-27T20:15:21;102317.81;;;2.90;98.93
21504;BME280;10913;51.992;9.228;2024-01-27T20:18:02;102318.53;;;2.88;98.49
21504;BME280;10913;51.992;9.228;2024-01-27T20:20:31;102321.06;;;2.86;98.19
21504;BME280;10913;51.992;9.228;2024-01-27T20:22:57;102309.22;;;2.76;98.32
21504;BME280;10913;51.992;9.228;2024-01-27T20:25:31;102313.34;;;2.73;98.86
21504;BME280;10913;51.992;9.228;2024-01-27T20:28:04;102320.72;;;2.65;99.08
21504;BME280;10913;51.992;9.228;2024-01-27T20:30:53;102324.88;;;2.62;99.22
21504;BME280;10913;51.992;9.228;2024-01-27T20:33:18;102327.16;;;2.56;99.20
21504;BME280;10913;51.992;9.228;2024-01-27T20:35:47;102324.25;;;2.51;99.00
21504;BME280;10913;51.992;9.228;2024-01-27T20:38:13;102327.41;;;2.46;99.09
21504;BME280;10913;51.992;9.228;2024-01-27T20:40:41;102320.19;;;2.41;99.26
21504;BME280;10913;51.992;9.228;2024-01-27T20:43:10;102328.81;;;2.40;98.93
21504;BME280;10913;51.992;9.228;2024-01-27T20:45:44;102329.72;;;2.41;98.97
21504;BME280;10913;51.992;9.228;2024-01-27T20:48:16;102328.81;;;2.40;99.06
21504;BME280;10913;51.992;9.228;2024-01-27T20:50:41;102325.06;;;2.35;99.75
21504;BME280;10913;51.992;9.228;2024-01-27T20:53:22;102323.38;;;2.36;99.70
21504;BME280;10913;51.992;9.228;2024-01-27T20:55:50;102325.06;;;2.35;99.76
21504;BME280;10913;51.992;9.228;2024-01-27T20:58:16;102326.88;;;2.36;99.48
21504;BME280;10913;51.992;9.228;2024-01-27T21:00:42;102315.63;;;2.37;99.83
21504;BME280;10913;51.992;9.228;2024-01-27T21:03:12;102318.16;;;2.36;99.44
21504;BME280;10913;51.992;9.228;2024-01-27T21:05:38;102314.47;;;2.32;100.00
21504;BME280;10913;51.992;9.228;2024-01-27T21:08:06;102318.78;;;2.32;100.00
21504;BME280;10913;51.992;9.228;2024-01-27T21:10:32;102305.47;;;2.27;99.93
21504;BME280;10913;51.992;9.228;2024-01-27T21:13:03;102310.66;;;2.27;100.00
21504;BME280;10913;51.992;9.228;2024-01-27T21:15:30;102312.84;;;2.20;99.70
21504;BME280;10913;51.992;9.228;2024-01-27T21:18:09;102320.38;;;2.15;99.81
21504;BME280;10913;51.992;9.228;2024-01-27T21:20:37;102319.63;;;2.03;100.00
21504;BME280;10913;51.992;9.228;2024-01-27T21:23:02;102317.69;;;1.99;100.00
21504;BME280;10913;51.992;9.228;2024-01-27T21:25:41;102316.69;;;1.97;100.00
21504;BME280;10913;51.992;9.228;2024-01-27T21:28:14;102325.22;;;1.94;100.00
21504;BME280;10913;51.992;9.228;2024-01-27T21:30:40;102326.13;;;1.95;100.00
21504;BME280;10913;51.992;9.228;2024-01-27T21:33:08;102317.31;;;1.93;100.00
21504;BME280;10913;51.992;9.228;2024-01-27T21:35:36;102308.69;;;1.94;100.00
21504;BME280;10913;51.992;9.228;2024-01-27T21:38:01;102325.22;;;1.94;99.77
21504;BME280;10913;51.992;9.228;2024-01-27T21:40:27;102315.50;;;1.92;99.96
21504;BME280;10913;51.992;9.228;2024-01-27T21:42:52;102320.53;;;1.89;100.00
21504;BME280;10913;51.992;9.228;2024-01-27T21:45:23;102306.69;;;1.90;100.00
21504;BME280;10913;51.992;9.228;2024-01-27T21:47:49;102302.28;;;1.89;100.00
21504;BME280;10913;51.992;9.228;2024-01-27T21:50:14;102297.06;;;1.89;100.00
21504;BME280;10913;51.992;9.228;2024-01-27T21:52:43;102288.25;;;1.87;100.00
21504;BME280;10913;51.992;9.228;2024-01-27T21:55:11;102289.97;;;1.86;100.00
21504;BME280;10913;51.992;9.228;2024-01-27T21:57:39;102286.25;;;1.83;100.00
21504;BME280;10913;51.992;9.228;2024-01-27T22:00:19;102285.25;;;1.81;100.00
21504;BME280;10913;51.992;9.228;2024-01-27T22:02:44;102279.00;;;1.77;100.00
21504;BME280;10913;51.992;9.228;2024-01-27T22:05:11;102265.16;;;1.78;100.00
21504;BME280;10913;51.992;9.228;2024-01-27T22:07:36;102272.69;;;1.73;100.00
21504;BME280;10913;51.992;9.228;2024-01-27T22:10:03;102262.09;;;1.70;100.00
21504;BME280;10913;51.992;9.228;2024-01-27T22:12:38;102260.81;;;1.64;100.00
21504;BME280;10913;51.992;9.228;2024-01-27T22:15:04;102251.09;;;1.61;100.00
21504;BME280;10913;51.992;9.228;2024-01-27T22:17:33;102257.94;;;1.59;100.00
21504;BME280;10913;51.992;9.228;2024-01-27T22:20:11;102251.63;;;1.56;100.00
21504;BME280;10913;51.992;9.228;2024-01-27T22:22:38;102261.88;;;1.53;100.00
21504;BME280;10913;51.992;9.228;2024-01-27T22:25:15;102267.78;;;1.50;100.00
21504;BME280;10913;51.992;9.228;2024-01-27T22:27:40;102273.19;;;1.53;100.00
21504;BME280;10913;51.992;9.228;2024-01-27T22:30:08;102272.09;;;1.50;100.00
21504;BME280;10913;51.992;9.228;2024-01-27T22:32:56;102276.31;;;1.48;100.00
21504;BME280;10913;51.992;9.228;2024-01-27T22:35:21;102281.41;;;1.46;100.00
21504;BME280;10913;51.992;9.228;2024-01-27T22:37:48;102284.81;;;1.45;100.00
21504;BME280;10913;51.992;9.228;2024-01-27T22:40:13;102283.72;;;1.42;100.00
21504;BME280;10913;51.992;9.228;2024-01-27T22:42:42;102280.41;;;1.44;100.00
21504;BME280;10913;51.992;9.228;2024-01-27T22:45:10;102278.72;;;1.45;100.00
21504;BME280;10913;51.992;9.228;2024-01-27T22:47:54;102267.19;;;1.41;100.00
21504;BME280;10913;51.992;9.228;2024-01-27T22:50:26;102263.63;;;1.39;100.00
21504;BME280;10913;51.992;9.228;2024-01-27T22:52:54;102267.03;;;1.38;100.00
21504;BME280;10913;51.992;9.228;2024-01-27T22:55:30;102275.56;;;1.35;100.00
21504;BME280;10913;51.992;9.228;2024-01-27T22:58:00;102270.75;;;1.28;100.00
21504;BME280;10913;51.992;9.228;2024-01-27T23:00:25;102275.41;;;1.19;100.00
21504;BME280;10913;51.992;9.228;2024-01-27T23:03:23;102284.34;;;1.10;100.00
21504;BME280;10913;51.992;9.228;2024-01-27T23:05:49;102288.25;;;1.03;100.00
21504;BME280;10913;51.992;9.228;2024-01-27T23:08:22;102280.34;;;1.01;100.00
21504;BME280;10913;51.992;9.228;2024-01-27T23:10:55;102286.44;;;1.02;100.00
21504;BME280;10913;51.992;9.228;2024-01-27T23:13:33;102276.75;;;0.99;100.00
21504;BME280;10913;51.992;9.228;2024-01-27T23:19:08;102283.66;;;0.99;100.00
21504;BME280;10913;51.992;9.228;2024-01-27T23:22:07;102275.03;;;1.00;100.00
21504;BME280;10913;51.992;9.228;2024-01-27T23:24:46;102274.75;;;0.95;100.00
21504;BME280;10913;51.992;9.228;2024-01-27T23:27:11;102272.25;;;0.97;100.00
21504;BME280;10913;51.992;9.228;2024-01-27T23:30:13;102253.94;;;0.95;100.00
21504;BME280;10913;51.992;9.228;2024-01-27T23:32:55;102252.34;;;0.97;100.00
21504;BME280;10913;51.992;9.228;2024-01-27T23:35:39;102255.66;;;0.95;100.00
21504;BME280;10913;51.992;9.228;2024-01-27T23:38:17;102255.34;;;0.90;100.00
21504;BME280;10913;51.992;9.228;2024-01-27T23:40:48;102256.94;;;0.88;100.00
21504;BME280;10913;51.992;9.228;2024-01-27T23:43:25;102263.75;;;0.86;100.00
21504;BME280;10913;51.992;9.228;2024-01-27T23:45:51;102262.56;;;0.81;100.00
21504;BME280;10913;51.992;9.228;2024-01-27T23:51:17;102268.78;;;0.70;100.00
21504;BME280;10913;51.992;9.228;2024-01-27T23:54:08;102263.16;;;0.64;100.00
21504;BME280;10913;51.992;9.228;2024-01-27T23:57:02;102257.97;;;0.64;100.00
